sensor_id;sensor_type;location;lat;lon;timestamp;P1;durP1;ratioP1;P2;durP2;ratioP2
12760;SDS011;6444;49.742;6.114;2022-12-18T00:01:20;26.60;;;13.50;;
12760;SDS011;6444;49.742;6.114;2022-12-18T00:03:46;33.13;;;13.37;;
12760;SDS011;6444;49.742;6.114;2022-12-18T00:06:12;25.33;;;13.07;;
12760;SDS011;6444;49.742;6.114;2022-12-18T00:08:39;24.27;;;12.33;;
12760;SDS011;6444;49.742;6.114;2022-12-18T00:11:06;28.70;;;13.57;;
12760;SDS011;6444;49.742;6.114;2022-12-18T00:13:32;29.20;;;13.73;;
12760;SDS011;6444;49.742;6.114;2022-12-18T00:16:02;34.23;;;16.37;;
12760;SDS011;6444;49.742;6.114;2022-12-18T00:18:31;38.30;;;16.77;;
12760;SDS011;6444;49.742;6.114;2022-12-18T00:20:58;26.23;;;14.33;;
12760;SDS011;6444;49.742;6.114;2022-12-18T00:23:24;25.47;;;12.40;;
12760;SDS011;6444;49.742;6.114;2022-12-18T00:25:51;34.50;;;17.20;;
12760;SDS011;6444;49.742;6.114;2022-12-18T00:28:18;40.37;;;17.10;;
12760;SDS011;6444;49.742;6.114;2022-12-18T00:30:44;31.30;;;15.13;;
12760;SDS011;6444;49.742;6.114;2022-12-18T00:33:12;36.00;;;18.03;;
12760;SDS011;6444;49.742;6.114;2022-12-18T00:35:38;39.37;;;17.40;;
12760;SDS011;6444;49.742;6.114;2022-12-18T00:38:05;32.43;;;15.43;;
12760;SDS011;6444;49.742;6.114;2022-12-18T00:40:31;38.37;;;16.73;;
12760;SDS011;6444;49.742;6.114;2022-12-18T00:42:58;29.17;;;15.57;;
12760;SDS011;6444;49.742;6.114;2022-12-18T00:45:29;49.47;;;26.23;;
12760;SDS011;6444;49.742;6.114;2022-12-18T00:47:54;35.17;;;16.20;;
12760;SDS011;6444;49.742;6.114;2022-12-18T00:50:21;38.40;;;21.20;;
12760;SDS011;6444;49.742;6.114;2022-12-18T00:52:47;37.30;;;20.77;;
12760;SDS011;6444;49.742;6.114;2022-12-18T00:55:14;24.13;;;13.23;;
12760;SDS011;6444;49.742;6.114;2022-12-18T00:57:41;30.73;;;14.43;;
12760;SDS011;6444;49.742;6.114;2022-12-18T01:00:08;30.87;;;14.30;;
12760;SDS011;6444;49.742;6.114;2022-12-18T01:02:34;28.23;;;14.93;;
12760;SDS011;6444;49.742;6.114;2022-12-18T01:05:01;43.43;;;17.00;;
12760;SDS011;6444;49.742;6.114;2022-12-18T01:07:27;35.10;;;16.27;;
12760;SDS011;6444;49.742;6.114;2022-12-18T01:09:54;43.53;;;19.87;;
12760;SDS011;6444;49.742;6.114;2022-12-18T01:12:20;43.20;;;18.53;;
12760;SDS011;6444;49.742;6.114;2022-12-18T01:14:47;39.40;;;18.43;;
12760;SDS011;6444;49.742;6.114;2022-12-18T01:17:14;38.83;;;17.10;;
12760;SDS011;6444;49.742;6.114;2022-12-18T01:19:40;39.40;;;16.70;;
12760;SDS011;6444;49.742;6.114;2022-12-18T01:22:07;32.67;;;15.63;;
12760;SDS011;6444;49.742;6.114;2022-12-18T01:24:34;34.83;;;16.20;;
12760;SDS011;6444;49.742;6.114;2022-12-18T01:27:00;31.53;;;15.17;;
12760;SDS011;6444;49.742;6.114;2022-12-18T01:29:27;35.00;;;15.83;;
12760;SDS011;6444;49.742;6.114;2022-12-18T01:31:54;34.40;;;14.27;;
12760;SDS011;6444;49.742;6.114;2022-12-18T01:34:25;58.80;;;29.77;;
12760;SDS011;6444;49.742;6.114;2022-12-18T01:36:52;45.10;;;18.93;;
12760;SDS011;6444;49.742;6.114;2022-12-18T01:39:18;38.13;;;17.70;;
12760;SDS011;6444;49.742;6.114;2022-12-18T01:41:45;40.50;;;16.80;;
12760;SDS011;6444;49.742;6.114;2022-12-18T01:47:25;32.63;;;14.67;;
12760;SDS011;6444;49.742;6.114;2022-12-18T01:49:50;25.37;;;13.43;;
12760;SDS011;6444;49.742;6.114;2022-12-18T01:52:17;25.73;;;13.03;;
12760;SDS011;6444;49.742;6.114;2022-12-18T01:54:43;21.00;;;11.40;;
12760;SDS011;6444;49.742;6.114;2022-12-18T01:57:10;23.93;;;12.23;;
12760;SDS011;6444;49.742;6.114;2022-12-18T01:59:37;38.77;;;21.10;;
12760;SDS011;6444;49.742;6.114;2022-12-18T02:02:03;40.90;;;22.40;;
12760;SDS011;6444;49.742;6.114;2022-12-18T02:04:30;39.13;;;22.33;;
12760;SDS011;6444;49.742;6.114;2022-12-18T02:06:59;37.17;;;21.97;;
12760;SDS011;6444;49.742;6.114;2022-12-18T02:09:33;29.03;;;15.13;;
12760;SDS011;6444;49.742;6.114;2022-12-18T02:17:23;19.60;;;9.73;;
12760;SDS011;6444;49.742;6.114;2022-12-18T02:27:48;18.83;;;9.07;;
12760;SDS011;6444;49.742;6.114;2022-12-18T02:30:14;22.60;;;10.47;;
12760;SDS011;6444;49.742;6.114;2022-12-18T02:32:42;20.10;;;11.07;;
12760;SDS011;6444;49.742;6.114;2022-12-18T02:35:09;26.93;;;12.83;;
12760;SDS011;6444;49.742;6.114;2022-12-18T02:37:35;30.40;;;13.63;;
12760;SDS011;6444;49.742;6.114;2022-12-18T02:40:02;30.83;;;14.83;;
12760;SDS011;6444;49.742;6.114;2022-12-18T02:42:28;29.97;;;13.33;;
12760;SDS011;6444;49.742;6.114;2022-12-18T02:44:55;28.70;;;13.50;;
12760;SDS011;6444;49.742;6.114;2022-12-18T02:47:22;29.13;;;14.17;;
12760;SDS011;6444;49.742;6.114;2022-12-18T02:57:33;21.40;;;10.00;;
12760;SDS011;6444;49.742;6.114;2022-12-18T03:00:03;42.22;;;22.58;;
12760;SDS011;6444;49.742;6.114;2022-12-18T03:02:34;29.80;;;16.17;;
12760;SDS011;6444;49.742;6.114;2022-12-18T03:05:21;28.23;;;13.57;;
12760;SDS011;6444;49.742;6.114;2022-12-18T03:08:08;22.97;;;11.37;;
12760;SDS011;6444;49.742;6.114;2022-12-18T03:09:55;21.43;;;10.30;;
12760;SDS011;6444;49.742;6.114;2022-12-18T03:12:23;21.03;;;9.90;;
12760;SDS011;6444;49.742;6.114;2022-12-18T03:14:54;18.77;;;10.40;;
12760;SDS011;6444;49.742;6.114;2022-12-18T03:17:22;19.00;;;10.23;;
12760;SDS011;6444;49.742;6.114;2022-12-18T03:19:48;21.53;;;9.87;;
12760;SDS011;6444;49.742;6.114;2022-12-18T03:22:14;20.13;;;11.33;;
12760;SDS011;6444;49.742;6.114;2022-12-18T03:24:41;22.53;;;10.30;;
12760;SDS011;6444;49.742;6.114;2022-12-18T03:27:11;23.43;;;12.27;;
12760;SDS011;6444;49.742;6.114;2022-12-18T03:29:42;36.65;;;19.67;;
12760;SDS011;6444;49.742;6.114;2022-12-18T03:32:11;36.30;;;20.50;;
12760;SDS011;6444;49.742;6.114;2022-12-18T03:34:37;33.83;;;19.63;;
12760;SDS011;6444;49.742;6.114;2022-12-18T03:37:03;24.43;;;13.80;;
12760;SDS011;6444;49.742;6.114;2022-12-18T03:39:30;24.07;;;11.33;;
12760;SDS011;6444;49.742;6.114;2022-12-18T03:42:00;27.77;;;12.60;;
12760;SDS011;6444;49.742;6.114;2022-12-18T03:44:34;24.03;;;11.40;;
12760;SDS011;6444;49.742;6.114;2022-12-18T03:47:03;27.23;;;13.13;;
12760;SDS011;6444;49.742;6.114;2022-12-18T03:52:02;28.80;;;13.17;;
12760;SDS011;6444;49.742;6.114;2022-12-18T03:54:27;26.43;;;12.87;;
12760;SDS011;6444;49.742;6.114;2022-12-18T03:56:56;43.40;;;23.43;;
12760;SDS011;6444;49.742;6.114;2022-12-18T03:59:21;37.53;;;16.67;;
12760;SDS011;6444;49.742;6.114;2022-12-18T04:01:48;29.73;;;14.43;;
12760;SDS011;6444;49.742;6.114;2022-12-18T04:04:14;28.23;;;13.13;;
12760;SDS011;6444;49.742;6.114;2022-12-18T04:06:41;26.83;;;13.40;;
12760;SDS011;6444;49.742;6.114;2022-12-18T04:09:07;24.57;;;12.53;;
12760;SDS011;6444;49.742;6.114;2022-12-18T04:11:34;28.73;;;13.70;;
12760;SDS011;6444;49.742;6.114;2022-12-18T04:14:00;25.37;;;13.37;;
12760;SDS011;6444;49.742;6.114;2022-12-18T04:16:27;24.70;;;11.90;;
12760;SDS011;6444;49.742;6.114;2022-12-18T04:18:54;24.53;;;13.40;;
12760;SDS011;6444;49.742;6.114;2022-12-18T04:21:20;27.07;;;11.93;;
12760;SDS011;6444;49.742;6.114;2022-12-18T04:23:47;24.87;;;13.73;;
12760;SDS011;6444;49.742;6.114;2022-12-18T04:26:14;26.03;;;12.33;;
12760;SDS011;6444;49.742;6.114;2022-12-18T04:28:41;24.40;;;13.40;;
12760;SDS011;6444;49.742;6.114;2022-12-18T04:31:08;24.97;;;12.53;;
12760;SDS011;6444;49.742;6.114;2022-12-18T04:33:34;24.93;;;12.23;;
12760;SDS011;6444;49.742;6.114;2022-12-18T04:36:01;21.57;;;11.70;;
12760;SDS011;6444;49.742;6.114;2022-12-18T04:38:28;26.13;;;11.47;;
12760;SDS011;6444;49.742;6.114;2022-12-18T04:40:55;22.67;;;12.07;;
12760;SDS011;6444;49.742;6.114;2022-12-18T04:43:21;27.13;;;12.10;;
12760;SDS011;6444;49.742;6.114;2022-12-18T04:45:48;19.90;;;10.33;;
12760;SDS011;6444;49.742;6.114;2022-12-18T04:48:15;26.77;;;10.10;;
12760;SDS011;6444;49.742;6.114;2022-12-18T04:50:41;21.53;;;11.33;;
12760;SDS011;6444;49.742;6.114;2022-12-18T04:53:08;19.53;;;9.50;;
12760;SDS011;6444;49.742;6.114;2022-12-18T04:55:35;29.03;;;12.83;;
12760;SDS011;6444;49.742;6.114;2022-12-18T04:58:02;25.10;;;11.90;;
12760;SDS011;6444;49.742;6.114;2022-12-18T05:00:29;28.90;;;12.20;;
12760;SDS011;6444;49.742;6.114;2022-12-18T05:03:00;40.27;;;21.23;;
12760;SDS011;6444;49.742;6.114;2022-12-18T05:05:25;40.85;;;23.50;;
12760;SDS011;6444;49.742;6.114;2022-12-18T05:07:52;40.58;;;22.42;;
12760;SDS011;6444;49.742;6.114;2022-12-18T05:10:19;29.90;;;15.67;;
12760;SDS011;6444;49.742;6.114;2022-12-18T05:12:46;24.77;;;13.23;;
12760;SDS011;6444;49.742;6.114;2022-12-18T05:15:28;22.23;;;12.03;;
12760;SDS011;6444;49.742;6.114;2022-12-18T05:17:54;39.80;;;21.10;;
12760;SDS011;6444;49.742;6.114;2022-12-18T05:20:20;28.70;;;14.40;;
12760;SDS011;6444;49.742;6.114;2022-12-18T05:22:47;19.07;;;12.30;;
12760;SDS011;6444;49.742;6.114;2022-12-18T05:25:15;24.33;;;12.00;;
12760;SDS011;6444;49.742;6.114;2022-12-18T05:27:41;19.67;;;11.33;;
12760;SDS011;6444;49.742;6.114;2022-12-18T05:30:08;22.73;;;11.93;;
12760;SDS011;6444;49.742;6.114;2022-12-18T05:32:34;25.27;;;12.23;;
12760;SDS011;6444;49.742;6.114;2022-12-18T05:35:01;30.77;;;12.40;;
12760;SDS011;6444;49.742;6.114;2022-12-18T05:37:28;25.17;;;11.43;;
12760;SDS011;6444;49.742;6.114;2022-12-18T05:39:54;41.10;;;21.37;;
12760;SDS011;6444;49.742;6.114;2022-12-18T05:42:21;38.80;;;22.33;;
12760;SDS011;6444;49.742;6.114;2022-12-18T05:44:47;37.40;;;21.40;;
12760;SDS011;6444;49.742;6.114;2022-12-18T05:47:14;31.47;;;14.93;;
12760;SDS011;6444;49.742;6.114;2022-12-18T05:49:41;24.77;;;13.53;;
12760;SDS011;6444;49.742;6.114;2022-12-18T05:52:07;22.93;;;11.37;;
12760;SDS011;6444;49.742;6.114;2022-12-18T05:54:34;23.80;;;12.23;;
12760;SDS011;6444;49.742;6.114;2022-12-18T05:57:01;23.70;;;12.43;;
12760;SDS011;6444;49.742;6.114;2022-12-18T05:59:27;25.73;;;13.00;;
12760;SDS011;6444;49.742;6.114;2022-12-18T06:01:54;26.83;;;12.60;;
12760;SDS011;6444;49.742;6.114;2022-12-18T06:04:21;24.57;;;12.60;;
12760;SDS011;6444;49.742;6.114;2022-12-18T06:06:48;22.30;;;12.80;;
12760;SDS011;6444;49.742;6.114;2022-12-18T06:09:15;24.07;;;11.77;;
12760;SDS011;6444;49.742;6.114;2022-12-18T06:11:41;24.73;;;12.13;;
12760;SDS011;6444;49.742;6.114;2022-12-18T06:14:08;20.77;;;11.03;;
12760;SDS011;6444;49.742;6.114;2022-12-18T06:16:35;24.33;;;12.37;;
12760;SDS011;6444;49.742;6.114;2022-12-18T06:19:03;20.70;;;11.10;;
12760;SDS011;6444;49.742;6.114;2022-12-18T06:21:29;20.03;;;10.37;;
12760;SDS011;6444;49.742;6.114;2022-12-18T06:23:55;19.93;;;11.30;;
12760;SDS011;6444;49.742;6.114;2022-12-18T06:26:22;25.63;;;11.83;;
12760;SDS011;6444;49.742;6.114;2022-12-18T06:28:48;22.70;;;10.87;;
12760;SDS011;6444;49.742;6.114;2022-12-18T06:31:15;39.80;;;22.57;;
12760;SDS011;6444;49.742;6.114;2022-12-18T06:33:42;46.17;;;25.80;;
12760;SDS011;6444;49.742;6.114;2022-12-18T06:36:10;40.10;;;24.37;;
12760;SDS011;6444;49.742;6.114;2022-12-18T06:38:36;40.72;;;23.12;;
12760;SDS011;6444;49.742;6.114;2022-12-18T06:41:08;33.65;;;20.58;;
12760;SDS011;6444;49.742;6.114;2022-12-18T06:43:35;28.17;;;12.70;;
12760;SDS011;6444;49.742;6.114;2022-12-18T06:46:02;21.47;;;10.93;;
12760;SDS011;6444;49.742;6.114;2022-12-18T06:48:29;21.13;;;10.60;;
12760;SDS011;6444;49.742;6.114;2022-12-18T06:50:56;20.47;;;10.40;;
12760;SDS011;6444;49.742;6.114;2022-12-18T06:53:22;22.33;;;10.23;;
12760;SDS011;6444;49.742;6.114;2022-12-18T06:55:49;18.97;;;9.67;;
12760;SDS011;6444;49.742;6.114;2022-12-18T06:58:15;16.30;;;9.50;;
12760;SDS011;6444;49.742;6.114;2022-12-18T07:00:42;15.70;;;10.40;;
12760;SDS011;6444;49.742;6.114;2022-12-18T07:03:10;17.57;;;9.40;;
12760;SDS011;6444;49.742;6.114;2022-12-18T07:05:39;18.50;;;9.50;;
12760;SDS011;6444;49.742;6.114;2022-12-18T07:08:02;20.30;;;10.07;;
12760;SDS011;6444;49.742;6.114;2022-12-18T07:10:29;20.93;;;8.60;;
12760;SDS011;6444;49.742;6.114;2022-12-18T07:12:56;20.27;;;9.73;;
12760;SDS011;6444;49.742;6.114;2022-12-18T07:15:23;16.30;;;8.47;;
12760;SDS011;6444;49.742;6.114;2022-12-18T07:17:49;18.07;;;10.33;;
12760;SDS011;6444;49.742;6.114;2022-12-18T07:20:16;14.00;;;8.93;;
12760;SDS011;6444;49.742;6.114;2022-12-18T07:22:43;16.13;;;8.70;;
12760;SDS011;6444;49.742;6.114;2022-12-18T07:25:10;16.87;;;8.90;;
12760;SDS011;6444;49.742;6.114;2022-12-18T07:27:37;20.47;;;11.33;;
12760;SDS011;6444;49.742;6.114;2022-12-18T07:30:03;17.33;;;10.60;;
12760;SDS011;6444;49.742;6.114;2022-12-18T07:32:30;19.10;;;10.37;;
12760;SDS011;6444;49.742;6.114;2022-12-18T07:34:56;33.50;;;19.67;;
12760;SDS011;6444;49.742;6.114;2022-12-18T07:37:23;35.92;;;21.98;;
12760;SDS011;6444;49.742;6.114;2022-12-18T07:39:50;31.40;;;14.73;;
12760;SDS011;6444;49.742;6.114;2022-12-18T07:42:16;28.80;;;13.60;;
12760;SDS011;6444;49.742;6.114;2022-12-18T07:44:58;31.33;;;13.73;;
12760;SDS011;6444;49.742;6.114;2022-12-18T07:47:24;38.43;;;20.80;;
12760;SDS011;6444;49.742;6.114;2022-12-18T07:49:51;29.70;;;15.87;;
12760;SDS011;6444;49.742;6.114;2022-12-18T07:52:18;27.20;;;14.47;;
12760;SDS011;6444;49.742;6.114;2022-12-18T07:54:44;32.33;;;16.30;;
12760;SDS011;6444;49.742;6.114;2022-12-18T07:57:11;31.63;;;15.83;;
12760;SDS011;6444;49.742;6.114;2022-12-18T07:59:38;30.27;;;16.27;;
12760;SDS011;6444;49.742;6.114;2022-12-18T08:02:05;36.27;;;16.13;;
12760;SDS011;6444;49.742;6.114;2022-12-18T08:04:34;28.40;;;15.47;;
12760;SDS011;6444;49.742;6.114;2022-12-18T08:07:01;36.10;;;18.93;;
12760;SDS011;6444;49.742;6.114;2022-12-18T08:09:28;43.10;;;28.13;;
12760;SDS011;6444;49.742;6.114;2022-12-18T08:11:54;36.13;;;21.00;;
12760;SDS011;6444;49.742;6.114;2022-12-18T08:14:21;28.43;;;16.20;;
12760;SDS011;6444;49.742;6.114;2022-12-18T08:16:48;34.87;;;15.97;;
12760;SDS011;6444;49.742;6.114;2022-12-18T08:19:15;26.30;;;15.70;;
12760;SDS011;6444;49.742;6.114;2022-12-18T08:21:42;28.20;;;15.57;;
12760;SDS011;6444;49.742;6.114;2022-12-18T08:24:08;30.03;;;16.20;;
12760;SDS011;6444;49.742;6.114;2022-12-18T08:26:35;28.80;;;15.23;;
12760;SDS011;6444;49.742;6.114;2022-12-18T08:29:02;29.27;;;14.77;;
12760;SDS011;6444;49.742;6.114;2022-12-18T08:31:29;33.23;;;15.00;;
12760;SDS011;6444;49.742;6.114;2022-12-18T08:33:56;27.00;;;13.87;;
12760;SDS011;6444;49.742;6.114;2022-12-18T08:36:22;27.20;;;15.43;;
12760;SDS011;6444;49.742;6.114;2022-12-18T08:38:49;36.40;;;15.60;;
12760;SDS011;6444;49.742;6.114;2022-12-18T08:41:16;30.00;;;15.07;;
12760;SDS011;6444;49.742;6.114;2022-12-18T08:43:43;43.60;;;21.33;;
12760;SDS011;6444;49.742;6.114;2022-12-18T08:46:31;25.23;;;15.00;;
12760;SDS011;6444;49.742;6.114;2022-12-18T08:48:55;28.07;;;16.10;;
12760;SDS011;6444;49.742;6.114;2022-12-18T08:51:22;34.17;;;17.87;;
12760;SDS011;6444;49.742;6.114;2022-12-18T08:53:48;30.67;;;17.83;;
12760;SDS011;6444;49.742;6.114;2022-12-18T08:56:15;27.97;;;17.43;;
12760;SDS011;6444;49.742;6.114;2022-12-18T08:58:42;33.20;;;16.33;;
12760;SDS011;6444;49.742;6.114;2022-12-18T09:01:09;29.90;;;15.83;;
12760;SDS011;6444;49.742;6.114;2022-12-18T09:03:35;32.17;;;16.57;;
12760;SDS011;6444;49.742;6.114;2022-12-18T09:06:01;32.43;;;17.90;;
12760;SDS011;6444;49.742;6.114;2022-12-18T09:08:28;34.90;;;19.53;;
12760;SDS011;6444;49.742;6.114;2022-12-18T09:10:55;32.07;;;19.10;;
12760;SDS011;6444;49.742;6.114;2022-12-18T09:13:21;40.80;;;21.63;;
12760;SDS011;6444;49.742;6.114;2022-12-18T09:15:49;44.93;;;25.93;;
12760;SDS011;6444;49.742;6.114;2022-12-18T09:18:15;42.33;;;25.83;;
12760;SDS011;6444;49.742;6.114;2022-12-18T09:20:41;37.67;;;21.77;;
12760;SDS011;6444;49.742;6.114;2022-12-18T09:23:08;33.07;;;19.53;;
12760;SDS011;6444;49.742;6.114;2022-12-18T09:25:35;31.00;;;19.07;;
12760;SDS011;6444;49.742;6.114;2022-12-18T09:28:03;29.73;;;17.20;;
12760;SDS011;6444;49.742;6.114;2022-12-18T09:30:28;26.43;;;16.00;;
12760;SDS011;6444;49.742;6.114;2022-12-18T09:32:55;29.10;;;16.73;;
12760;SDS011;6444;49.742;6.114;2022-12-18T09:35:22;31.40;;;19.13;;
12760;SDS011;6444;49.742;6.114;2022-12-18T09:37:48;23.37;;;15.63;;
12760;SDS011;6444;49.742;6.114;2022-12-18T09:40:19;24.40;;;15.03;;
12760;SDS011;6444;49.742;6.114;2022-12-18T09:42:45;24.47;;;13.80;;
12760;SDS011;6444;49.742;6.114;2022-12-18T09:45:12;28.97;;;15.40;;
12760;SDS011;6444;49.742;6.114;2022-12-18T09:47:40;35.07;;;21.13;;
12760;SDS011;6444;49.742;6.114;2022-12-18T09:50:20;33.30;;;23.67;;
12760;SDS011;6444;49.742;6.114;2022-12-18T09:52:56;31.00;;;18.63;;
12760;SDS011;6444;49.742;6.114;2022-12-18T09:58:01;31.87;;;20.63;;
12760;SDS011;6444;49.742;6.114;2022-12-18T10:00:35;28.20;;;16.73;;
12760;SDS011;6444;49.742;6.114;2022-12-18T10:03:12;31.20;;;18.03;;
12760;SDS011;6444;49.742;6.114;2022-12-18T10:05:41;32.63;;;18.70;;
12760;SDS011;6444;49.742;6.114;2022-12-18T10:08:25;32.00;;;21.52;;
12760;SDS011;6444;49.742;6.114;2022-12-18T10:10:53;30.43;;;18.77;;
12760;SDS011;6444;49.742;6.114;2022-12-18T10:13:33;30.43;;;18.53;;
12760;SDS011;6444;49.742;6.114;2022-12-18T10:16:20;38.60;;;20.90;;
12760;SDS011;6444;49.742;6.114;2022-12-18T10:18:38;29.17;;;18.13;;
12760;SDS011;6444;49.742;6.114;2022-12-18T10:21:01;33.23;;;18.67;;
12760;SDS011;6444;49.742;6.114;2022-12-18T10:23:32;28.53;;;18.77;;
12760;SDS011;6444;49.742;6.114;2022-12-18T10:26:02;32.20;;;18.90;;
12760;SDS011;6444;49.742;6.114;2022-12-18T10:28:29;27.37;;;18.07;;
12760;SDS011;6444;49.742;6.114;2022-12-18T10:30:54;29.70;;;17.47;;
12760;SDS011;6444;49.742;6.114;2022-12-18T10:33:22;35.53;;;20.60;;
12760;SDS011;6444;49.742;6.114;2022-12-18T10:35:49;45.00;;;25.33;;
12760;SDS011;6444;49.742;6.114;2022-12-18T10:43:15;33.43;;;20.00;;
12760;SDS011;6444;49.742;6.114;2022-12-18T10:45:41;37.23;;;20.20;;
12760;SDS011;6444;49.742;6.114;2022-12-18T10:48:17;33.97;;;19.17;;
12760;SDS011;6444;49.742;6.114;2022-12-18T10:50:43;36.43;;;20.53;;
12760;SDS011;6444;49.742;6.114;2022-12-18T10:53:13;54.03;;;29.43;;
12760;SDS011;6444;49.742;6.114;2022-12-18T10:55:39;60.17;;;41.05;;
12760;SDS011;6444;49.742;6.114;2022-12-18T11:01:10;37.37;;;23.47;;
12760;SDS011;6444;49.742;6.114;2022-12-18T11:03:37;41.57;;;24.40;;
12760;SDS011;6444;49.742;6.114;2022-12-18T11:06:07;33.17;;;19.30;;
12760;SDS011;6444;49.742;6.114;2022-12-18T11:08:32;34.03;;;19.17;;
12760;SDS011;6444;49.742;6.114;2022-12-18T11:10:59;30.73;;;18.70;;
12760;SDS011;6444;49.742;6.114;2022-12-18T11:13:26;34.07;;;18.83;;
12760;SDS011;6444;49.742;6.114;2022-12-18T11:15:52;34.63;;;20.30;;
12760;SDS011;6444;49.742;6.114;2022-12-18T11:18:22;32.40;;;19.07;;
12760;SDS011;6444;49.742;6.114;2022-12-18T11:20:52;35.87;;;21.77;;
12760;SDS011;6444;49.742;6.114;2022-12-18T11:23:16;37.57;;;20.77;;
12760;SDS011;6444;49.742;6.114;2022-12-18T11:25:50;41.13;;;22.23;;
12760;SDS011;6444;49.742;6.114;2022-12-18T11:31:17;37.73;;;21.73;;
12760;SDS011;6444;49.742;6.114;2022-12-18T11:36:28;35.67;;;18.23;;
12760;SDS011;6444;49.742;6.114;2022-12-18T11:38:53;28.07;;;17.43;;
12760;SDS011;6444;49.742;6.114;2022-12-18T11:41:24;31.73;;;18.33;;
12760;SDS011;6444;49.742;6.114;2022-12-18T11:43:54;31.52;;;21.70;;
12760;SDS011;6444;49.742;6.114;2022-12-18T11:46:39;33.07;;;20.73;;
12760;SDS011;6444;49.742;6.114;2022-12-18T11:52:01;30.37;;;19.33;;
12760;SDS011;6444;49.742;6.114;2022-12-18T11:54:32;30.13;;;17.03;;
12760;SDS011;6444;49.742;6.114;2022-12-18T11:57:05;30.10;;;17.30;;
12760;SDS011;6444;49.742;6.114;2022-12-18T12:01:57;25.70;;;16.53;;
12760;SDS011;6444;49.742;6.114;2022-12-18T12:04:28;32.87;;;18.27;;
12760;SDS011;6444;49.742;6.114;2022-12-18T12:18:00;29.70;;;17.40;;
12760;SDS011;6444;49.742;6.114;2022-12-18T12:20:14;31.70;;;21.60;;
12760;SDS011;6444;49.742;6.114;2022-12-18T12:22:50;30.53;;;17.93;;
12760;SDS011;6444;49.742;6.114;2022-12-18T12:30:22;29.10;;;17.90;;
12760;SDS011;6444;49.742;6.114;2022-12-18T12:32:55;30.33;;;17.97;;
12760;SDS011;6444;49.742;6.114;2022-12-18T12:38:07;29.77;;;17.53;;
12760;SDS011;6444;49.742;6.114;2022-12-18T12:40:34;35.07;;;20.57;;
12760;SDS011;6444;49.742;6.114;2022-12-18T12:43:02;44.53;;;27.13;;
12760;SDS011;6444;49.742;6.114;2022-12-18T12:51:12;34.78;;;23.65;;
12760;SDS011;6444;49.742;6.114;2022-12-18T12:53:49;34.05;;;23.83;;
12760;SDS011;6444;49.742;6.114;2022-12-18T12:56:16;30.47;;;18.47;;
12760;SDS011;6444;49.742;6.114;2022-12-18T12:58:46;31.23;;;18.57;;
12760;SDS011;6444;49.742;6.114;2022-12-18T13:01:36;30.03;;;17.50;;
12760;SDS011;6444;49.742;6.114;2022-12-18T13:06:45;29.53;;;17.80;;
12760;SDS011;6444;49.742;6.114;2022-12-18T13:09:10;31.57;;;18.60;;
12760;SDS011;6444;49.742;6.114;2022-12-18T13:11:38;35.60;;;19.13;;
12760;SDS011;6444;49.742;6.114;2022-12-18T13:14:29;33.40;;;17.33;;
12760;SDS011;6444;49.742;6.114;2022-12-18T13:19:50;34.60;;;19.00;;
12760;SDS011;6444;49.742;6.114;2022-12-18T13:22:20;39.03;;;25.62;;
12760;SDS011;6444;49.742;6.114;2022-12-18T13:24:46;47.73;;;28.00;;
12760;SDS011;6444;49.742;6.114;2022-12-18T13:29:45;41.80;;;23.13;;
12760;SDS011;6444;49.742;6.114;2022-12-18T13:32:23;40.00;;;21.30;;
12760;SDS011;6444;49.742;6.114;2022-12-18T13:35:00;38.37;;;21.07;;
12760;SDS011;6444;49.742;6.114;2022-12-18T13:39:57;43.87;;;29.70;;
12760;SDS011;6444;49.742;6.114;2022-12-18T13:44:59;36.10;;;19.60;;
12760;SDS011;6444;49.742;6.114;2022-12-18T13:49:52;38.67;;;20.97;;
12760;SDS011;6444;49.742;6.114;2022-12-18T13:52:22;34.27;;;19.13;;
12760;SDS011;6444;49.742;6.114;2022-12-18T13:55:01;42.50;;;28.12;;
12760;SDS011;6444;49.742;6.114;2022-12-18T13:59:51;47.33;;;30.90;;
12760;SDS011;6444;49.742;6.114;2022-12-18T14:02:21;45.88;;;31.12;;
12760;SDS011;6444;49.742;6.114;2022-12-18T14:04:45;46.72;;;31.42;;
12760;SDS011;6444;49.742;6.114;2022-12-18T14:07:12;45.90;;;25.37;;
12760;SDS011;6444;49.742;6.114;2022-12-18T14:09:47;39.77;;;23.87;;
12760;SDS011;6444;49.742;6.114;2022-12-18T14:12:16;38.17;;;22.37;;
12760;SDS011;6444;49.742;6.114;2022-12-18T14:15:13;35.07;;;18.90;;
12760;SDS011;6444;49.742;6.114;2022-12-18T14:17:33;34.63;;;21.23;;
12760;SDS011;6444;49.742;6.114;2022-12-18T14:20:00;39.67;;;22.97;;
12760;SDS011;6444;49.742;6.114;2022-12-18T14:22:26;49.75;;;31.20;;
12760;SDS011;6444;49.742;6.114;2022-12-18T14:25:13;43.40;;;23.23;;
12760;SDS011;6444;49.742;6.114;2022-12-18T14:27:36;45.13;;;27.10;;
12760;SDS011;6444;49.742;6.114;2022-12-18T14:30:01;42.37;;;24.77;;
12760;SDS011;6444;49.742;6.114;2022-12-18T14:32:28;41.30;;;22.80;;
12760;SDS011;6444;49.742;6.114;2022-12-18T14:34:55;42.83;;;22.17;;
12760;SDS011;6444;49.742;6.114;2022-12-18T14:37:25;37.53;;;19.20;;
12760;SDS011;6444;49.742;6.114;2022-12-18T14:42:24;42.20;;;22.53;;
12760;SDS011;6444;49.742;6.114;2022-12-18T14:44:50;40.33;;;23.00;;
12760;SDS011;6444;49.742;6.114;2022-12-18T14:47:17;40.30;;;21.73;;
12760;SDS011;6444;49.742;6.114;2022-12-18T14:49:43;49.83;;;31.30;;
12760;SDS011;6444;49.742;6.114;2022-12-18T14:52:19;44.00;;;25.07;;
12760;SDS011;6444;49.742;6.114;2022-12-18T14:54:51;43.30;;;22.93;;
12760;SDS011;6444;49.742;6.114;2022-12-18T14:57:22;43.03;;;24.03;;
12760;SDS011;6444;49.742;6.114;2022-12-18T14:59:48;44.57;;;23.37;;
12760;SDS011;6444;49.742;6.114;2022-12-18T15:02:25;39.63;;;22.70;;
12760;SDS011;6444;49.742;6.114;2022-12-18T15:05:00;47.57;;;23.40;;
12760;SDS011;6444;49.742;6.114;2022-12-18T15:07:25;50.57;;;24.23;;
12760;SDS011;6444;49.742;6.114;2022-12-18T15:12:37;55.40;;;30.70;;
12760;SDS011;6444;49.742;6.114;2022-12-18T15:15:01;58.70;;;31.17;;
12760;SDS011;6444;49.742;6.114;2022-12-18T15:17:27;46.13;;;24.73;;
12760;SDS011;6444;49.742;6.114;2022-12-18T15:19:58;51.37;;;26.97;;
12760;SDS011;6444;49.742;6.114;2022-12-18T15:22:21;54.43;;;28.40;;
12760;SDS011;6444;49.742;6.114;2022-12-18T15:24:47;47.13;;;24.83;;
12760;SDS011;6444;49.742;6.114;2022-12-18T15:27:24;50.40;;;22.97;;
12760;SDS011;6444;49.742;6.114;2022-12-18T15:32:42;43.60;;;23.10;;
12760;SDS011;6444;49.742;6.114;2022-12-18T15:37:41;73.00;;;39.90;;
12760;SDS011;6444;49.742;6.114;2022-12-18T15:40:08;49.07;;;26.10;;
12760;SDS011;6444;49.742;6.114;2022-12-18T15:42:34;45.40;;;23.00;;
12760;SDS011;6444;49.742;6.114;2022-12-18T15:45:18;46.07;;;23.07;;
12760;SDS011;6444;49.742;6.114;2022-12-18T15:47:45;50.20;;;23.60;;
12760;SDS011;6444;49.742;6.114;2022-12-18T15:50:12;44.67;;;23.97;;
12760;SDS011;6444;49.742;6.114;2022-12-18T15:52:42;44.77;;;23.67;;
12760;SDS011;6444;49.742;6.114;2022-12-18T15:55:17;45.77;;;22.60;;
12760;SDS011;6444;49.742;6.114;2022-12-18T15:57:58;44.07;;;24.00;;
12760;SDS011;6444;49.742;6.114;2022-12-18T16:00:25;41.53;;;21.37;;
12760;SDS011;6444;49.742;6.114;2022-12-18T16:02:51;51.97;;;27.13;;
12760;SDS011;6444;49.742;6.114;2022-12-18T16:05:24;48.60;;;25.47;;
12760;SDS011;6444;49.742;6.114;2022-12-18T16:07:44;47.90;;;25.47;;
12760;SDS011;6444;49.742;6.114;2022-12-18T16:10:11;51.53;;;26.83;;
12760;SDS011;6444;49.742;6.114;2022-12-18T16:12:38;62.30;;;38.33;;
12760;SDS011;6444;49.742;6.114;2022-12-18T16:15:04;51.93;;;28.40;;
12760;SDS011;6444;49.742;6.114;2022-12-18T16:17:31;63.22;;;37.35;;
12760;SDS011;6444;49.742;6.114;2022-12-18T16:19:57;62.13;;;37.75;;
12760;SDS011;6444;49.742;6.114;2022-12-18T16:22:25;53.73;;;28.63;;